Time;durP1;ratioP1;P1;durP2;ratioP2;P2;SDS_P1;SDS_P2;PMS_P1;PMS_P2;Temp;Humidity;BMP_temperature;BMP_pressure;BME280_temperature;BME280_humidity;BME280_pressure;Samples;Min_cycle;Max_cycle;Signal;HPM_P1;HPM_P2
2021/07/16 00:00:00;;;;;;;1.23;0.55;;;;;;;;;;4949567;28;20082;-50
2021/07/16 00:02:29;;;;;;;1.80;0.80;;;;;;;;;;4953890;29;20134;-52
2021/07/16 00:04:56;;;;;;;1.90;0.40;;;;;;;;;;4954848;28;20102;-47
2021/07/16 00:07:24;;;;;;;1.58;0.50;;;;;;;;;;4954808;28;20201;-48
2021/07/16 00:09:51;;;;;;;3.70;0.70;;;;;;;;;;4946417;28;20127;-51
2021/07/16 00:12:18;;;;;;;0.55;0.50;;;;;;;;;;4954948;28;20126;-48
2021/07/16 00:14:44;;;;;;;0.80;0.50;;;;;;;;;;4953136;28;20070;-49
2021/07/16 00:17:11;;;;;;;0.82;0.60;;;;;;;;;;4941220;28;20040;-52
2021/07/16 00:19:38;;;;;;;1.30;0.45;;;;;;;;;;4938967;28;20408;-44
2021/07/16 00:22:05;;;;;;;0.70;0.50;;;;;;;;;;4954762;28;20078;-44
2021/07/16 00:24:31;;;;;;;1.00;0.40;;;;;;;;;;4954200;28;20074;-48
2021/07/16 00:27:04;;;;;;;2.90;0.60;;;;;;;;;;4954793;28;20090;-45
2021/07/16 00:29:31;;;;;;;2.45;0.45;;;;;;;;;;4938883;28;20137;-47
2021/07/16 00:31:58;;;;;;;3.03;0.60;;;;;;;;;;4954580;28;20445;-47
2021/07/16 00:34:26;;;;;;;1.20;0.47;;;;;;;;;;4954559;28;20063;-48
2021/07/16 00:36:52;;;;;;;2.05;0.60;;;;;;;;;;4947509;28;20074;-45
2021/07/16 00:39:19;;;;;;;1.52;0.47;;;;;;;;;;4950420;29;20067;-46
2021/07/16 00:41:46;;;;;;;0.93;0.50;;;;;;;;;;4954355;28;20130;-49
2021/07/16 00:44:13;;;;;;;1.40;0.55;;;;;;;;;;4953195;29;20441;-46
2021/07/16 00:46:39;;;;;;;1.20;0.55;;;;;;;;;;4950985;28;20470;-47
2021/07/16 00:49:06;;;;;;;2.60;0.70;;;;;;;;;;4953560;29;20560;-48
2021/07/16 00:51:33;;;;;;;0.60;0.60;;;;;;;;;;4953724;28;20508;-45
2021/07/16 00:54:00;;;;;;;1.05;0.50;;;;;;;;;;4953975;28;20122;-47
2021/07/16 00:56:27;;;;;;;2.05;0.60;;;;;;;;;;4937272;28;20091;-47
2021/07/16 00:58:54;;;;;;;0.68;0.50;;;;;;;;;;4933964;28;20553;-52
2021/07/16 01:01:21;;;;;;;1.45;0.60;;;;;;;;;;4951069;29;20130;-46
2021/07/16 01:03:49;;;;;;;0.85;0.50;;;;;;;;;;4953963;28;20044;-45
2021/07/16 01:06:16;;;;;;;0.98;0.47;;;;;;;;;;4953969;28;20043;-45
2021/07/16 01:08:43;;;;;;;1.02;0.50;;;;;;;;;;4950441;28;20452;-46
2021/07/16 01:11:10;;;;;;;1.10;0.73;;;;;;;;;;4953764;28;20121;-46
2021/07/16 01:13:37;;;;;;;0.82;0.70;;;;;;;;;;4952508;29;20067;-47
2021/07/16 01:16:04;;;;;;;1.77;0.70;;;;;;;;;;4941635;28;20048;-48
2021/07/16 01:18:32;;;;;;;1.65;0.70;;;;;;;;;;4936837;29;20039;-46
2021/07/16 01:20:58;;;;;;;2.05;0.60;;;;;;;;;;4953524;28;20078;-46
2021/07/16 01:23:25;;;;;;;0.50;0.50;;;;;;;;;;4953440;28;20055;-46
2021/07/16 01:25:52;;;;;;;2.67;0.60;;;;;;;;;;4941650;28;20058;-48
2021/07/16 01:28:20;;;;;;;0.82;0.65;;;;;;;;;;4965706;23;20062;-44
2021/07/16 01:30:51;;;;;;;1.88;0.50;;;;;;;;;;4979063;28;20477;-45
2021/07/16 01:33:18;;;;;;;1.40;0.68;;;;;;;;;;4972542;28;20515;-46
2021/07/16 01:35:44;;;;;;;1.92;0.45;;;;;;;;;;4972152;28;20464;-47
2021/07/16 01:38:11;;;;;;;0.60;0.50;;;;;;;;;;4965065;28;20047;-45
2021/07/16 01:40:39;;;;;;;3.45;0.50;;;;;;;;;;4952927;28;20369;-50
2021/07/16 01:43:07;;;;;;;3.45;0.60;;;;;;;;;;4952993;28;20098;-47
2021/07/16 01:45:34;;;;;;;3.03;0.50;;;;;;;;;;4952917;28;20520;-45
2021/07/16 01:48:03;;;;;;;0.40;0.40;;;;;;;;;;4968411;28;20053;-46
2021/07/16 01:50:30;;;;;;;0.40;0.40;;;;;;;;;;4970763;28;20039;-44
2021/07/16 01:52:57;;;;;;;1.35;0.60;;;;;;;;;;4971739;28;20046;-45
2021/07/16 01:55:25;;;;;;;1.02;0.50;;;;;;;;;;4958609;28;20487;-43
2021/07/16 01:57:53;;;;;;;0.95;0.50;;;;;;;;;;4971769;28;20141;-45
2021/07/16 02:00:21;;;;;;;0.47;0.47;;;;;;;;;;4960492;28;20129;-46
2021/07/16 02:02:52;;;;;;;0.98;0.60;;;;;;;;;;4970431;28;20127;-45
2021/07/16 02:05:21;;;;;;;;;;;;;;;;;;4972348;28;20130;-47
2021/07/16 02:07:50;;;;;;;0.65;0.52;;;;;;;;;;4975259;28;19929;-45
2021/07/16 02:10:19;;;;;;;2.13;0.60;;;;;;;;;;4957368;28;20105;-44
2021/07/16 02:12:46;;;;;;;0.75;0.45;;;;;;;;;;4963855;28;20118;-47
2021/07/16 02:15:14;;;;;;;0.88;0.50;;;;;;;;;;4975606;28;20039;-45
2021/07/16 02:17:41;;;;;;;2.25;0.50;;;;;;;;;;4966665;28;20067;-45
2021/07/16 02:20:26;;;;;;;1.88;0.50;;;;;;;;;;4974929;28;20508;-49
2021/07/16 02:22:54;;;;;;;1.35;0.68;;;;;;;;;;4975615;28;20050;-44
2021/07/16 02:25:21;;;;;;;0.77;0.60;;;;;;;;;;4974682;28;20149;-45
2021/07/16 02:27:49;;;;;;;1.27;0.70;;;;;;;;;;4974961;28;20528;-48
2021/07/16 02:30:16;;;;;;;3.13;0.40;;;;;;;;;;4971019;28;20070;-47
2021/07/16 02:32:44;;;;;;;2.30;0.40;;;;;;;;;;4975466;28;20556;-46
2021/07/16 02:35:11;;;;;;;0.70;0.60;;;;;;;;;;4975395;28;20122;-46
2021/07/16 02:37:38;;;;;;;1.77;0.70;;;;;;;;;;4971050;28;20053;-44
2021/07/16 02:40:06;;;;;;;0.45;0.45;;;;;;;;;;4959077;28;20039;-45
2021/07/16 02:42:33;;;;;;;0.98;0.55;;;;;;;;;;4974673;28;20050;-44
2021/07/16 02:45:02;;;;;;;1.35;0.50;;;;;;;;;;4975124;28;20047;-46
2021/07/16 02:47:29;;;;;;;0.55;0.50;;;;;;;;;;4969865;28;20035;-47
2021/07/16 02:49:56;;;;;;;0.40;0.40;;;;;;;;;;4971793;28;20065;-48
2021/07/16 02:52:24;;;;;;;0.98;0.57;;;;;;;;;;4975131;28;20134;-47
2021/07/16 02:54:51;;;;;;;2.20;1.10;;;;;;;;;;4970242;28;20775;-44
2021/07/16 02:57:17;;;;;;;5.13;0.80;;;;;;;;;;4968036;28;20043;-45
2021/07/16 02:59:44;;;;;;;2.38;0.80;;;;;;;;;;4963258;28;20073;-44
2021/07/16 03:02:11;;;;;;;1.30;0.73;;;;;;;;;;4971797;28;20067;-45
2021/07/16 03:04:38;;;;;;;2.88;0.70;;;;;;;;;;4974778;28;20074;-44
2021/07/16 03:07:04;;;;;;;2.67;0.85;;;;;;;;;;4971871;28;20488;-44
2021/07/16 03:09:34;;;;;;;0.43;0.40;;;;;;;;;;4954627;28;20070;-47
2021/07/16 03:12:02;;;;;;;0.60;0.50;;;;;;;;;;4955395;28;20179;-50
2021/07/16 03:14:29;;;;;;;0.88;0.60;;;;;;;;;;4973635;28;20408;-48
2021/07/16 03:16:56;;;;;;;1.60;0.43;;;;;;;;;;4960646;28;20540;-48
2021/07/16 03:19:23;;;;;;;3.60;0.50;;;;;;;;;;4972473;28;20562;-43
2021/07/16 03:21:50;;;;;;;0.57;0.40;;;;;;;;;;4974758;28;20448;-47
2021/07/16 03:24:18;;;;;;;1.40;0.47;;;;;;;;;;4973900;28;20548;-45
2021/07/16 03:26:45;;;;;;;1.00;0.70;;;;;;;;;;4961681;28;20045;-44
2021/07/16 03:29:13;;;;;;;0.60;0.50;;;;;;;;;;4962196;28;20039;-46
2021/07/16 03:31:40;;;;;;;1.63;0.68;;;;;;;;;;4963120;28;20047;-45
2021/07/16 03:34:07;;;;;;;0.77;0.60;;;;;;;;;;4969665;28;20130;-47
2021/07/16 03:36:34;;;;;;;0.93;0.60;;;;;;;;;;4973960;28;20479;-44
2021/07/16 03:39:01;;;;;;;0.50;0.50;;;;;;;;;;4969550;28;20369;-46
2021/07/16 03:41:28;;;;;;;2.95;0.52;;;;;;;;;;4974210;28;20078;-47
2021/07/16 03:43:54;;;;;;;0.57;0.50;;;;;;;;;;4974156;28;20460;-45
2021/07/16 03:46:21;;;;;;;0.70;0.60;;;;;;;;;;4974151;28;20514;-46
2021/07/16 03:48:48;;;;;;;1.88;0.70;;;;;;;;;;4962088;28;20066;-44
2021/07/16 03:51:15;;;;;;;0.65;0.50;;;;;;;;;;4974201;28;20710;-46
2021/07/16 03:53:41;;;;;;;2.15;0.60;;;;;;;;;;4973907;28;20049;-43
2021/07/16 03:56:08;;;;;;;1.65;0.70;;;;;;;;;;4961403;28;20397;-44
2021/07/16 03:58:35;;;;;;;2.13;0.65;;;;;;;;;;4961841;28;20131;-45
2021/07/16 04:01:02;;;;;;;1.15;0.57;;;;;;;;;;4962418;28;20054;-45
2021/07/16 04:03:29;;;;;;;1.20;0.60;;;;;;;;;;4973431;28;20105;-44
2021/07/16 04:05:56;;;;;;;1.05;0.50;;;;;;;;;;4973445;28;20394;-50
2021/07/16 04:08:23;;;;;;;1.50;0.60;;;;;;;;;;4965241;28;20453;-45
2021/07/16 04:10:50;;;;;;;0.70;0.45;;;;;;;;;;4973742;28;20046;-50
2021/07/16 04:13:17;;;;;;;1.85;0.70;;;;;;;;;;4973271;28;20126;-46
2021/07/16 04:15:44;;;;;;;0.93;0.60;;;;;;;;;;4969393;28;20056;-45
2021/07/16 04:18:11;;;;;;;0.75;0.60;;;;;;;;;;4957546;28;20094;-45
2021/07/16 04:20:39;;;;;;;1.05;0.60;;;;;;;;;;4972557;28;20480;-45
2021/07/16 04:23:06;;;;;;;1.75;0.50;;;;;;;;;;4973887;28;20109;-46
2021/07/16 04:25:33;;;;;;;1.98;0.60;;;;;;;;;;4969003;28;20045;-45
2021/07/16 04:28:02;;;;;;;1.42;0.47;;;;;;;;;;4955063;28;20123;-51
2021/07/16 04:30:31;;;;;;;0.68;0.50;;;;;;;;;;4961609;28;20107;-45
2021/07/16 04:32:59;;;;;;;2.05;0.57;;;;;;;;;;4973059;28;20078;-44
2021/07/16 04:35:25;;;;;;;2.20;0.50;;;;;;;;;;4973177;28;20066;-48
2021/07/16 04:37:52;;;;;;;1.73;0.75;;;;;;;;;;4961834;28;20505;-44
2021/07/16 04:40:21;;;;;;;1.30;0.50;;;;;;;;;;4972732;28;20047;-48
2021/07/16 04:42:49;;;;;;;1.92;0.60;;;;;;;;;;4972969;28;20077;-46
2021/07/16 04:45:16;;;;;;;1.35;0.77;;;;;;;;;;4973056;28;20470;-47
2021/07/16 04:47:42;;;;;;;0.63;0.40;;;;;;;;;;4968272;28;20069;-45
2021/07/16 04:50:10;;;;;;;2.30;0.70;;;;;;;;;;4972017;28;20043;-48
2021/07/16 04:52:40;;;;;;;1.52;0.50;;;;;;;;;;4972775;28;20070;-45
2021/07/16 04:55:07;;;;;;;0.50;0.50;;;;;;;;;;4961864;28;20059;-45
2021/07/16 04:57:34;;;;;;;0.80;0.60;;;;;;;;;;4953539;28;20351;-48
2021/07/16 05:00:03;;;;;;;3.10;0.55;;;;;;;;;;4956667;28;20054;-44
2021/07/16 05:02:30;;;;;;;1.98;0.43;;;;;;;;;;4953514;28;20398;-48
2021/07/16 05:04:58;;;;;;;1.75;0.57;;;;;;;;;;4970183;28;20082;-45
2021/07/16 05:07:25;;;;;;;2.30;0.50;;;;;;;;;;4972109;28;20117;-47
2021/07/16 05:09:52;;;;;;;1.15;0.52;;;;;;;;;;4957133;28;20062;-46
2021/07/16 05:12:19;;;;;;;1.80;0.60;;;;;;;;;;4953314;28;20134;-48
2021/07/16 05:14:46;;;;;;;1.08;0.40;;;;;;;;;;4970523;28;20346;-45
2021/07/16 05:17:13;;;;;;;3.33;0.70;;;;;;;;;;4963230;28;20050;-46
2021/07/16 05:19:39;;;;;;;3.60;0.60;;;;;;;;;;4970495;28;20126;-45
2021/07/16 05:22:06;;;;;;;3.17;0.90;;;;;;;;;;4972475;28;20134;-46
2021/07/16 05:24:33;;;;;;;2.28;1.10;;;;;;;;;;4972262;28;20436;-44
2021/07/16 05:27:00;;;;;;;5.70;0.68;;;;;;;;;;4956193;28;20138;-47
2021/07/16 05:29:27;;;;;;;1.83;0.50;;;;;;;;;;4960363;28;20043;-50
2021/07/16 05:31:54;;;;;;;1.20;0.50;;;;;;;;;;4964349;28;20480;-50
2021/07/16 05:34:21;;;;;;;1.40;0.60;;;;;;;;;;4967539;28;20039;-46
2021/07/16 05:36:48;;;;;;;2.17;0.55;;;;;;;;;;4968308;28;20373;-45
2021/07/16 05:39:15;;;;;;;3.33;0.73;;;;;;;;;;4966121;28;20047;-45
2021/07/16 05:41:41;;;;;;;1.88;0.70;;;;;;;;;;4971411;28;20134;-45
2021/07/16 05:44:08;;;;;;;3.03;0.93;;;;;;;;;;4972159;28;20181;-45
2021/07/16 05:46:35;;;;;;;2.67;0.80;;;;;;;;;;4959577;28;20051;-45
2021/07/16 05:49:02;;;;;;;1.13;0.70;;;;;;;;;;4971069;28;20051;-47
2021/07/16 05:51:29;;;;;;;3.10;0.80;;;;;;;;;;4972175;28;20457;-43
2021/07/16 05:53:55;;;;;;;3.42;1.02;;;;;;;;;;4971051;28;20220;-46
2021/07/16 05:56:22;;;;;;;2.60;1.40;;;;;;;;;;4952823;28;20043;-44
2021/07/16 05:58:49;;;;;;;3.88;1.63;;;;;;;;;;4962589;28;20133;-44
2021/07/16 06:01:16;;;;;;;7.38;1.05;;;;;;;;;;4967702;28;20105;-45
2021/07/16 06:03:43;;;;;;;2.50;1.20;;;;;;;;;;4972124;28;20508;-44
2021/07/16 06:06:10;;;;;;;6.38;1.58;;;;;;;;;;4971717;28;20039;-47
2021/07/16 06:08:37;;;;;;;2.55;1.40;;;;;;;;;;4969221;28;20049;-47
2021/07/16 06:11:04;;;;;;;3.05;1.42;;;;;;;;;;4971658;28;20051;-48
2021/07/16 06:13:30;;;;;;;1.90;1.17;;;;;;;;;;4971887;28;20481;-50
2021/07/16 06:15:57;;;;;;;4.40;1.45;;;;;;;;;;4960666;28;20066;-52
2021/07/16 06:18:24;;;;;;;4.07;2.80;;;;;;;;;;4965272;28;20050;-49
2021/07/16 06:20:51;;;;;;;7.03;2.70;;;;;;;;;;4972006;28;20046;-48
2021/07/16 06:23:18;;;;;;;4.45;2.42;;;;;;;;;;4971815;28;20098;-47
2021/07/16 06:25:45;;;;;;;4.35;2.40;;;;;;;;;;4968864;28;20042;-47
2021/07/16 06:28:12;;;;;;;2.85;2.08;;;;;;;;;;4969508;28;20051;-47
2021/07/16 06:30:39;;;;;;;4.85;2.42;;;;;;;;;;4961774;28;20038;-47
2021/07/16 06:33:06;;;;;;;4.47;3.10;;;;;;;;;;4971774;28;20043;-48
2021/07/16 06:35:33;;;;;;;6.35;3.33;;;;;;;;;;4971835;28;20047;-46
2021/07/16 06:38:00;;;;;;;7.18;3.42;;;;;;;;;;4969543;28;20047;-47
2021/07/16 06:40:26;;;;;;;4.65;3.15;;;;;;;;;;4971550;28;20129;-47
2021/07/16 06:42:53;;;;;;;4.40;3.22;;;;;;;;;;4971066;28;20122;-48
2021/07/16 06:45:20;;;;;;;5.88;3.47;;;;;;;;;;4957759;28;20044;-51
2021/07/16 06:47:47;;;;;;;4.60;3.00;;;;;;;;;;4971537;28;20074;-49
2021/07/16 06:50:14;;;;;;;4.50;2.90;;;;;;;;;;4969337;28;20046;-48
2021/07/16 06:52:40;;;;;;;5.28;3.00;;;;;;;;;;4972868;28;20049;-47
2021/07/16 06:55:07;;;;;;;3.72;2.72;;;;;;;;;;4969985;28;20071;-48
2021/07/16 06:57:34;;;;;;;3.53;2.20;;;;;;;;;;4974959;28;20130;-47
2021/07/16 07:00:01;;;;;;;3.33;2.30;;;;;;;;;;4970647;28;20088;-46
2021/07/16 07:02:29;;;;;;;4.07;2.55;;;;;;;;;;4974135;28;20046;-48
2021/07/16 07:04:55;;;;;;;4.70;2.47;;;;;;;;;;4973788;28;20185;-49
2021/07/16 07:07:22;;;;;;;4.15;2.33;;;;;;;;;;4958461;28;20134;-50
2021/07/16 07:09:49;;;;;;;8.48;3.17;;;;;;;;;;4969023;28;20045;-48
2021/07/16 07:12:16;;;;;;;5.40;2.53;;;;;;;;;;4973906;28;20121;-51
2021/07/16 07:14:42;;;;;;;2.95;1.70;;;;;;;;;;4970972;28;20173;-47
2021/07/16 07:17:09;;;;;;;3.78;2.45;;;;;;;;;;4969352;28;20077;-47
2021/07/16 07:19:36;;;;;;;2.97;2.13;;;;;;;;;;4972766;28;20046;-48
2021/07/16 07:22:03;;;;;;;4.18;2.58;;;;;;;;;;4971062;28;20043;-50
2021/07/16 07:24:30;;;;;;;4.75;2.20;;;;;;;;;;4971937;28;20050;-48
2021/07/16 07:26:57;;;;;;;2.88;2.13;;;;;;;;;;4970854;28;20050;-49
2021/07/16 07:29:25;;;;;;;3.08;2.15;;;;;;;;;;4962897;28;20083;-53
2021/07/16 07:31:52;;;;;;;4.40;2.15;;;;;;;;;;4965514;28;20055;-49
2021/07/16 07:34:18;;;;;;;5.82;2.40;;;;;;;;;;4970853;28;20492;-47
2021/07/16 07:36:47;;;;;;;3.33;2.80;;;;;;;;;;4971045;28;20066;-47
2021/07/16 07:39:14;;;;;;;2.92;2.47;;;;;;;;;;4970639;28;20134;-47
2021/07/16 07:41:45;;;;;;;4.75;2.42;;;;;;;;;;4970473;28;20081;-49
2021/07/16 07:44:15;;;;;;;2.90;2.33;;;;;;;;;;4970961;28;20047;-51
2021/07/16 07:46:42;;;;;;;3.38;2.00;;;;;;;;;;4962961;28;20054;-46
2021/07/16 07:49:11;;;;;;;2.47;1.65;;;;;;;;;;4964027;28;20129;-48
2021/07/16 07:51:38;;;;;;;3.58;1.70;;;;;;;;;;4967831;28;20079;-47
2021/07/16 07:54:06;;;;;;;3.63;2.00;;;;;;;;;;4950134;28;20114;-47
2021/07/16 07:56:33;;;;;;;3.72;1.90;;;;;;;;;;4966476;28;20427;-48
2021/07/16 07:59:00;;;;;;;2.08;1.60;;;;;;;;;;4963424;28;20047;-47
2021/07/16 08:01:30;;;;;;;1.88;1.52;;;;;;;;;;4963224;28;20049;-47
2021/07/16 08:03:59;;;;;;;3.30;1.67;;;;;;;;;;4971630;28;20078;-46
2021/07/16 08:06:26;;;;;;;2.80;1.63;;;;;;;;;;4976052;28;20237;-45
2021/07/16 08:08:53;;;;;;;2.70;1.60;;;;;;;;;;4974246;28;20061;-46
2021/07/16 08:11:23;;;;;;;2.50;1.70;;;;;;;;;;4979778;23;20041;31
2021/07/16 08:13:50;;;;;;;2.20;1.40;;;;;;;;;;4939650;28;20043;-45
2021/07/16 08:16:17;;;;;;;2.72;1.50;;;;;;;;;;4952024;28;21940;-44
2021/07/16 08:18:44;;;;;;;3.85;1.50;;;;;;;;;;4953407;28;20100;-43
2021/07/16 08:21:11;;;;;;;3.05;1.50;;;;;;;;;;4949221;28;20048;-44
2021/07/16 08:23:38;;;;;;;2.72;1.83;;;;;;;;;;4949364;29;20047;-45
2021/07/16 08:26:04;;;;;;;2.00;1.63;;;;;;;;;;4952426;28;20047;-43
2021/07/16 08:28:32;;;;;;;2.00;1.52;;;;;;;;;;4947539;28;20047;-43
2021/07/16 08:30:59;;;;;;;2.15;1.50;;;;;;;;;;4952281;28;20517;-43
2021/07/16 08:33:26;;;;;;;2.85;1.45;;;;;;;;;;4953730;28;20040;-44
2021/07/16 08:35:53;;;;;;;2.10;1.30;;;;;;;;;;4957777;28;20067;-44
2021/07/16 08:38:20;;;;;;;2.33;1.20;;;;;;;;;;4950960;28;20077;-43
2021/07/16 08:40:46;;;;;;;2.50;1.42;;;;;;;;;;4953349;28;20052;-47
2021/07/16 08:43:15;;;;;;;1.27;1.17;;;;;;;;;;4951941;29;20172;-45
2021/07/16 08:45:42;;;;;;;3.20;1.73;;;;;;;;;;4945785;29;20039;-44
2021/07/16 08:48:09;;;;;;;3.30;1.23;;;;;;;;;;4948374;28;20067;-45
2021/07/16 08:50:36;;;;;;;2.92;1.63;;;;;;;;;;4944004;28;20050;-45
2021/07/16 08:53:03;;;;;;;1.63;1.23;;;;;;;;;;4952675;28;20071;-44
2021/07/16 08:55:33;;;;;;;3.45;1.52;;;;;;;;;;4945304;29;20179;-44
2021/07/16 08:58:00;;;;;;;2.42;1.70;;;;;;;;;;4953194;28;20043;-48
2021/07/16 09:00:27;;;;;;;1.65;1.23;;;;;;;;;;4952606;28;20050;-47
2021/07/16 09:03:05;;;;;;;2.97;1.58;;;;;;;;;;4934599;29;20694;-42
2021/07/16 09:05:37;;;;;;;5.03;1.42;;;;;;;;;;4949415;29;20560;-42
2021/07/16 09:08:10;;;;;;;6.18;1.48;;;;;;;;;;4951131;28;20488;-43
2021/07/16 09:10:38;;;;;;;2.22;1.30;;;;;;;;;;4953011;28;20039;-41
2021/07/16 09:13:08;;;;;;;3.78;1.35;;;;;;;;;;4967495;28;20162;-42
2021/07/16 09:15:35;;;;;;;1.90;1.27;;;;;;;;;;4966926;28;20146;-44
2021/07/16 09:18:14;;;;;;;2.10;1.50;;;;;;;;;;4950363;28;20039;-42
2021/07/16 09:20:41;;;;;;;2.78;1.90;;;;;;;;;;4967871;28;20081;-41
2021/07/16 09:23:16;;;;;;;2.38;1.60;;;;;;;;;;4948074;29;20154;-45
2021/07/16 09:25:43;;;;;;;2.55;1.83;;;;;;;;;;4951893;28;20047;-44
2021/07/16 09:28:23;;;;;;;3.80;1.90;;;;;;;;;;4966783;28;20047;-42
2021/07/16 09:30:50;;;;;;;4.28;1.83;;;;;;;;;;4950272;28;20051;-43
2021/07/16 09:33:17;;;;;;;5.60;1.77;;;;;;;;;;4951014;28;20043;-42
2021/07/16 09:35:45;;;;;;;3.97;1.55;;;;;;;;;;4951593;29;20071;-45
2021/07/16 09:38:15;;;;;;;2.72;1.70;;;;;;;;;;4943224;28;20035;-44
2021/07/16 09:40:46;;;;;;;3.10;1.85;;;;;;;;;;4940600;28;20047;-42
2021/07/16 09:43:15;;;;;;;2.47;1.90;;;;;;;;;;4941733;28;20078;-44
2021/07/16 09:45:43;;;;;;;2.80;1.92;;;;;;;;;;4944859;28;20043;-46
2021/07/16 09:48:36;;;;;;;2.72;1.60;;;;;;;;;;4950797;28;20047;-44
2021/07/16 09:51:22;;;;;;;3.53;1.60;;;;;;;;;;4934201;29;20568;-48
2021/07/16 09:54:01;;;;;;;2.67;1.65;;;;;;;;;;4950591;28;20070;-45
2021/07/16 09:56:29;;;;;;;2.50;1.63;;;;;;;;;;4952637;28;20049;-48
2021/07/16 09:59:03;;;;;;;2.45;1.63;;;;;;;;;;4952096;28;20053;-45
2021/07/16 10:01:31;;;;;;;3.70;1.50;;;;;;;;;;4951637;29;20045;-45
2021/07/16 10:03:59;;;;;;;5.25;1.90;;;;;;;;;;4952703;28;20489;-45
2021/07/16 10:06:29;;;;;;;2.33;1.60;;;;;;;;;;4952188;28;20043;-43
2021/07/16 10:08:56;;;;;;;2.63;1.58;;;;;;;;;;4945760;28;20118;-45
2021/07/16 10:11:28;;;;;;;2.60;1.63;;;;;;;;;;4939064;28;20047;-42
2021/07/16 10:13:55;;;;;;;5.70;1.80;;;;;;;;;;4948376;28;20071;-43
2021/07/16 10:16:22;;;;;;;2.75;1.30;;;;;;;;;;4949378;28;20047;-42
2021/07/16 10:18:51;;;;;;;1.80;1.20;;;;;;;;;;4939310;28;20055;-47
2021/07/16 10:21:20;;;;;;;1.60;1.17;;;;;;;;;;4941551;28;20493;-42
2021/07/16 10:23:47;;;;;;;2.03;1.40;;;;;;;;;;4947243;28;20039;-42
2021/07/16 10:26:15;;;;;;;2.75;1.42;;;;;;;;;;4953140;28;20527;-47
2021/07/16 10:28:42;;;;;;;3.58;1.40;;;;;;;;;;4952816;28;20130;-46
2021/07/16 10:31:28;;;;;;;3.58;1.20;;;;;;;;;;4948115;28;20039;-46
2021/07/16 10:34:02;;;;;;;1.88;1.25;;;;;;;;;;4945199;29;20090;-44
2021/07/16 10:36:37;;;;;;;2.92;1.20;;;;;;;;;;4949667;28;20065;-43
2021/07/16 10:39:05;;;;;;;1.95;1.30;;;;;;;;;;4954636;29;20051;-45
2021/07/16 10:41:35;;;;;;;2.42;1.50;;;;;;;;;;4956125;28;20114;-45
2021/07/16 10:44:02;;;;;;;2.17;1.30;;;;;;;;;;4955388;28;20520;-43
2021/07/16 10:46:30;;;;;;;2.08;1.30;;;;;;;;;;4950535;29;20497;-47
2021/07/16 10:48:58;;;;;;;2.15;1.10;;;;;;;;;;4952091;29;20062;-47
2021/07/16 10:51:29;;;;;;;1.98;1.00;;;;;;;;;;4954696;28;20055;-41
2021/07/16 10:53:57;;;;;;;2.22;1.30;;;;;;;;;;4962786;28;20134;-46
2021/07/16 10:56:43;;;;;;;2.05;1.10;;;;;;;;;;4955690;28;20051;-47
2021/07/16 10:59:10;;;;;;;1.20;0.80;;;;;;;;;;4941592;29;20043;-45
2021/07/16 11:01:39;;;;;;;2.35;0.95;;;;;;;;;;4954217;28;20079;-44
2021/07/16 11:04:07;;;;;;;0.75;0.70;;;;;;;;;;4936939;29;20048;-44
2021/07/16 11:06:47;;;;;;;1.80;1.00;;;;;;;;;;4937460;29;20102;-42
2021/07/16 11:09:43;;;;;;;1.50;1.00;;;;;;;;;;4953719;29;20043;-42
2021/07/16 11:12:20;;;;;;;1.13;0.90;;;;;;;;;;4953712;28;20548;-44
2021/07/16 11:14:47;;;;;;;1.63;0.90;;;;;;;;;;4953058;28;20043;-46
2021/07/16 11:17:32;;;;;;;3.38;0.90;;;;;;;;;;4954875;28;20040;-42
2021/07/16 11:20:08;;;;;;;1.90;0.93;;;;;;;;;;4953777;28;20068;-43
2021/07/16 11:22:52;;;;;;;3.80;1.20;;;;;;;;;;4953056;28;20039;-46
2021/07/16 11:25:18;;;;;;;1.95;1.02;;;;;;;;;;4950276;29;20050;-41
2021/07/16 11:27:45;;;;;;;2.30;1.10;;;;;;;;;;4950816;29;20047;-47
2021/07/16 11:30:13;;;;;;;1.13;0.80;;;;;;;;;;4954124;28;20058;-44
2021/07/16 11:32:39;;;;;;;1.40;1.00;;;;;;;;;;4950563;28;20122;-47
2021/07/16 11:35:07;;;;;;;1.48;1.00;;;;;;;;;;4951756;28;20143;-45
2021/07/16 11:37:35;;;;;;;0.98;0.82;;;;;;;;;;4954943;28;20039;-48
2021/07/16 11:40:07;;;;;;;2.00;1.30;;;;;;;;;;4952195;28;20046;-44
2021/07/16 11:42:46;;;;;;;2.45;1.10;;;;;;;;;;4954976;28;20117;-46
2021/07/16 11:45:17;;;;;;;2.83;1.10;;;;;;;;;;4951829;28;20061;-45
2021/07/16 11:47:44;;;;;;;2.25;0.93;;;;;;;;;;4944714;29;20051;-46
2021/07/16 11:50:12;;;;;;;0.90;0.73;;;;;;;;;;4952962;28;20047;-42
2021/07/16 11:52:47;;;;;;;1.17;0.90;;;;;;;;;;4955025;28;20047;-42
2021/07/16 11:55:15;;;;;;;2.08;1.13;;;;;;;;;;4953184;28;20046;-42
2021/07/16 11:57:46;;;;;;;;;;;;;;;;;;4955391;28;20054;-43
2021/07/16 12:00:13;;;;;;;1.27;0.90;;;;;;;;;;4951959;28;19957;-44
2021/07/16 12:02:40;;;;;;;1.60;0.93;;;;;;;;;;4954724;28;20051;-42
2021/07/16 12:05:07;;;;;;;10.73;1.30;;;;;;;;;;4967936;28;20070;-44
2021/07/16 12:07:38;;;;;;;30.15;3.17;;;;;;;;;;4938770;28;20130;-42
2021/07/16 12:10:13;;;;;;;2.28;0.93;;;;;;;;;;4949476;29;20079;-45
2021/07/16 12:12:40;;;;;;;16.88;2.65;;;;;;;;;;4947808;28;20131;-42
2021/07/16 12:15:11;;;;;;;40.20;5.18;;;;;;;;;;4948123;28;20050;-46
2021/07/16 12:17:40;;;;;;;3.95;1.88;;;;;;;;;;4947355;29;20408;-42
2021/07/16 12:20:10;;;;;;;2.85;0.80;;;;;;;;;;4952554;28;20070;-43
2021/07/16 12:22:42;;;;;;;2.20;0.90;;;;;;;;;;4954248;28;20083;-41
2021/07/16 12:25:10;;;;;;;2.30;0.88;;;;;;;;;;4952440;28;20111;-41
2021/07/16 12:27:37;;;;;;;2.55;0.90;;;;;;;;;;4944407;28;20043;-46
2021/07/16 12:30:05;;;;;;;1.17;1.00;;;;;;;;;;4951190;28;20039;-42
2021/07/16 12:32:32;;;;;;;2.05;0.90;;;;;;;;;;4953992;28;20070;-43
2021/07/16 12:34:59;;;;;;;1.60;0.80;;;;;;;;;;4954017;28;20036;-43
2021/07/16 12:37:35;;;;;;;1.48;1.00;;;;;;;;;;4953623;28;20497;-44
2021/07/16 12:40:03;;;;;;;1.33;0.95;;;;;;;;;;4953161;28;20524;-45
2021/07/16 12:42:30;;;;;;;2.40;0.75;;;;;;;;;;4953998;28;20051;-43
2021/07/16 12:45:05;;;;;;;0.82;0.70;;;;;;;;;;4953781;28;20063;-40
2021/07/16 12:47:32;;;;;;;1.80;0.90;;;;;;;;;;4953351;28;20473;-41
2021/07/16 12:50:12;;;;;;;1.45;0.80;;;;;;;;;;4952736;28;20095;-44
2021/07/16 12:52:40;;;;;;;0.93;0.80;;;;;;;;;;4953778;28;20044;-41
2021/07/16 12:55:14;;;;;;;0.52;0.52;;;;;;;;;;4953197;28;20073;-42
2021/07/16 12:57:40;;;;;;;2.35;0.80;;;;;;;;;;4941106;29;20138;-46
2021/07/16 13:00:16;;;;;;;2.42;0.80;;;;;;;;;;4944573;28;20143;-43
2021/07/16 13:02:44;;;;;;;1.00;0.70;;;;;;;;;;4947812;28;20122;-42
2021/07/16 13:05:11;;;;;;;1.35;0.80;;;;;;;;;;4945953;28;20219;-46
2021/07/16 13:07:38;;;;;;;2.38;0.70;;;;;;;;;;4946236;28;20110;-48
2021/07/16 13:10:32;;;;;;;1.33;0.90;;;;;;;;;;4952684;28;20050;-45
2021/07/16 13:13:03;;;;;;;0.63;0.60;;;;;;;;;;4948388;29;20051;-41
2021/07/16 13:15:30;;;;;;;0.75;0.65;;;;;;;;;;4950317;28;20513;-44
2021/07/16 13:18:05;;;;;;;1.77;0.80;;;;;;;;;;4952003;28;20075;-44
2021/07/16 13:20:32;;;;;;;6.30;1.20;;;;;;;;;;4946632;29;20130;-45
2021/07/16 13:22:58;;;;;;;3.42;0.70;;;;;;;;;;4968001;28;20094;-41
2021/07/16 13:25:25;;;;;;;1.05;0.90;;;;;;;;;;4952384;28;20138;-49
2021/07/16 13:27:52;;;;;;;2.30;0.70;;;;;;;;;;4935479;29;20048;-43
2021/07/16 13:30:19;;;;;;;1.90;0.65;;;;;;;;;;4944702;28;20095;-47
2021/07/16 13:32:45;;;;;;;1.00;0.80;;;;;;;;;;4952584;28;20047;-41
2021/07/16 13:35:12;;;;;;;1.52;0.75;;;;;;;;;;4947970;28;20747;-43
2021/07/16 13:37:40;;;;;;;1.92;0.90;;;;;;;;;;4967213;28;20054;-42
2021/07/16 13:40:07;;;;;;;1.95;0.68;;;;;;;;;;4951227;28;20077;-48
2021/07/16 13:42:36;;;;;;;0.98;0.80;;;;;;;;;;4950758;29;20062;-45
2021/07/16 13:45:03;;;;;;;1.25;0.70;;;;;;;;;;4953039;28;20047;-45
2021/07/16 13:47:30;;;;;;;0.77;0.77;;;;;;;;;;4954155;28;20094;-43
2021/07/16 13:50:00;;;;;;;0.73;0.60;;;;;;;;;;4951096;28;20043;-45
2021/07/16 13:52:30;;;;;;;1.70;0.77;;;;;;;;;;4950903;29;20063;-42
2021/07/16 13:54:57;;;;;;;0.98;0.63;;;;;;;;;;4949934;28;20079;-43
2021/07/16 13:57:24;;;;;;;1.08;0.75;;;;;;;;;;4945973;28;20476;-42
2021/07/16 13:59:51;;;;;;;0.77;0.70;;;;;;;;;;4950688;28;20074;-43
2021/07/16 14:02:18;;;;;;;1.38;0.70;;;;;;;;;;4953343;28;20239;-44
2021/07/16 14:04:45;;;;;;;1.58;0.85;;;;;;;;;;4955594;28;20090;-43
2021/07/16 14:07:11;;;;;;;0.63;0.60;;;;;;;;;;4953717;28;20047;-42
2021/07/16 14:09:39;;;;;;;2.15;0.80;;;;;;;;;;4955469;29;20039;-45
2021/07/16 14:12:08;;;;;;;1.30;0.50;;;;;;;;;;4956972;28;20091;-45
2021/07/16 14:14:34;;;;;;;0.88;0.60;;;;;;;;;;4946309;28;20062;-45
2021/07/16 14:17:01;;;;;;;1.00;0.57;;;;;;;;;;4955241;29;20039;-46
2021/07/16 14:19:28;;;;;;;2.33;0.75;;;;;;;;;;4952973;28;20548;-44
2021/07/16 14:21:55;;;;;;;2.60;0.50;;;;;;;;;;4954801;28;20094;-45
2021/07/16 14:24:22;;;;;;;1.63;0.60;;;;;;;;;;4953282;28;20493;-44
2021/07/16 14:26:49;;;;;;;1.90;0.70;;;;;;;;;;4953664;28;20039;-48
2021/07/16 14:29:16;;;;;;;1.30;0.60;;;;;;;;;;4955377;28;20047;-50
2021/07/16 14:31:43;;;;;;;1.98;0.75;;;;;;;;;;4952668;28;20122;-46
2021/07/16 14:34:10;;;;;;;1.20;0.55;;;;;;;;;;4956486;28;20486;-48
2021/07/16 14:36:38;;;;;;;0.77;0.60;;;;;;;;;;4953967;29;20115;-48
2021/07/16 14:39:05;;;;;;;0.95;0.70;;;;;;;;;;4954061;28;20051;-43
2021/07/16 14:41:32;;;;;;;0.50;0.50;;;;;;;;;;4947087;28;20457;-44
2021/07/16 14:43:59;;;;;;;1.88;0.55;;;;;;;;;;4956418;28;20050;-45
2021/07/16 14:46:28;;;;;;;1.52;0.95;;;;;;;;;;4952302;28;20126;-48
2021/07/16 14:48:55;;;;;;;0.70;0.70;;;;;;;;;;4955767;28;20098;-47